createdAt,value
2022-08-11T00:02:15.225Z,100253.03
2022-08-11T00:05:06.161Z,100248.56
2022-08-11T00:07:54.899Z,100255.31
2022-08-11T00:10:41.330Z,100258.13
2022-08-11T00:13:36.545Z,100251.66
2022-08-11T00:16:24.215Z,100247.56
2022-08-11T00:19:11.292Z,100253.38
2022-08-11T00:22:04.612Z,100250.31
2022-08-11T00:24:56.181Z,100244.94
2022-08-11T00:27:47.084Z,100233.59
2022-08-11T00:30:39.835Z,100241.78
2022-08-11T00:33:44.481Z,100239.84
2022-08-11T00:36:43.664Z,100239.97
2022-08-11T00:39:32.828Z,100241.50
2022-08-11T00:42:46.270Z,100238.25
2022-08-11T00:45:40.539Z,100227.34
2022-08-11T00:48:33.019Z,100228.34
2022-08-11T00:52:03.801Z,100234.81
2022-08-11T00:54:52.664Z,100231.09
2022-08-11T00:58:27.360Z,100226.06
2022-08-11T01:01:17.381Z,100229.53
2022-08-11T01:04:28.393Z,100227.13
2022-08-11T01:08:01.884Z,100229.25
2022-08-11T01:11:02.727Z,100236.25
2022-08-11T01:13:57.851Z,100218.94
2022-08-11T01:17:11.981Z,100226.97
2022-08-11T01:20:47.915Z,100218.59
2022-08-11T01:23:35.613Z,100222.78
2022-08-11T01:26:43.995Z,100224.19
2022-08-11T01:29:52.045Z,100220.03
2022-08-11T01:32:57.138Z,100217.38
2022-08-11T01:36:20.861Z,100219.53
2022-08-11T01:39:25.495Z,100217.59
2022-08-11T01:42:45.869Z,100210.63
2022-08-11T01:45:58.585Z,100209.00
2022-08-11T01:48:54.284Z,100210.78
2022-08-11T01:52:03.143Z,100217.28
2022-08-11T01:55:13.170Z,100211.81
2022-08-11T01:58:18.202Z,100220.81
2022-08-11T02:01:23.855Z,100208.75
2022-08-11T02:04:10.160Z,100211.56
2022-08-11T02:07:10.990Z,100219.22
2022-08-11T02:10:36.658Z,100201.44
2022-08-11T02:13:36.552Z,100209.44
2022-08-11T02:16:36.233Z,100195.94
2022-08-11T02:19:47.126Z,100200.69
2022-08-11T02:22:58.915Z,100194.25
2022-08-11T02:26:09.595Z,100203.28
2022-08-11T02:29:23.218Z,100202.69
2022-08-11T02:32:40.380Z,100205.66
2022-08-11T02:35:36.599Z,100202.66
2022-08-11T02:38:45.479Z,100197.69
2022-08-11T02:42:42.266Z,100199.13
2022-08-11T02:45:36.869Z,100196.34
2022-08-11T02:48:55.394Z,100193.47
2022-08-11T02:52:02.942Z,100194.34
2022-08-11T02:54:54.514Z,100192.06
2022-08-11T02:57:50.073Z,100186.53
2022-08-11T03:00:47.679Z,100194.84
2022-08-11T03:03:39.317Z,100190.97
2022-08-11T03:06:46.121Z,100196.16
2022-08-11T03:09:42.810Z,100184.34
2022-08-11T03:12:53.787Z,100193.13
2022-08-11T03:16:09.557Z,100197.50
2022-08-11T03:19:11.646Z,100212.06
2022-08-11T03:22:13.334Z,100207.47
2022-08-11T03:25:07.913Z,100204.56
2022-08-11T03:28:21.949Z,100198.69
2022-08-11T03:31:25.444Z,100201.12
2022-08-11T03:34:39.370Z,100209.53
2022-08-11T03:37:51.763Z,100198.59
2022-08-11T03:41:54.635Z,100202.53
2022-08-11T03:44:54.324Z,100197.91
2022-08-11T03:48:04.906Z,100197.47
2022-08-11T03:51:03.268Z,100191.88
2022-08-11T03:53:58.319Z,100199.75
2022-08-11T03:57:09.786Z,100202.31
2022-08-11T04:00:19.626Z,100200.44
2022-08-11T04:03:53.292Z,100195.84
2022-08-11T04:07:17.655Z,100201.53
2022-08-11T04:10:29.324Z,100195.12
2022-08-11T04:13:49.227Z,100198.16
2022-08-11T04:17:00.018Z,100208.38
2022-08-11T04:20:24.117Z,100197.78
2022-08-11T04:24:36.771Z,100200.00
2022-08-11T04:27:01.965Z,100204.47
2022-08-11T04:30:06.112Z,100212.16
2022-08-11T04:33:34.394Z,100212.41
2022-08-11T04:36:59.185Z,100217.31
2022-08-11T04:40:00.958Z,100221.41
2022-08-11T04:43:21.377Z,100208.59
2022-08-11T04:46:28.916Z,100213.06
2022-08-11T04:49:56.226Z,100221.16
2022-08-11T04:53:07.084Z,100221.78
2022-08-11T04:56:33.043Z,100207.25
2022-08-11T05:00:08.638Z,100219.00
2022-08-11T05:03:33.730Z,100221.75
2022-08-11T05:06:34.649Z,100218.81
2022-08-11T05:09:29.534Z,100220.59
2022-08-11T05:12:21.620Z,100223.78
2022-08-11T05:15:31.766Z,100217.16
2022-08-11T05:18:48.960Z,100227.16
2022-08-11T05:21:55.210Z,100233.44
2022-08-11T05:25:08.252Z,100233.50
2022-08-11T05:28:24.205Z,100234.28
2022-08-11T05:31:31.792Z,100238.72
2022-08-11T05:34:40.494Z,100240.84
2022-08-11T05:37:29.915Z,100239.97
2022-08-11T05:40:35.097Z,100246.25
2022-08-11T05:44:19.788Z,100237.22
2022-08-11T05:47:08.372Z,100243.81
2022-08-11T05:50:15.124Z,100253.63
2022-08-11T05:53:21.886Z,100237.69
2022-08-11T05:56:22.068Z,100242.78
2022-08-11T05:59:14.728Z,100240.41
2022-08-11T06:02:03.379Z,100246.75
2022-08-11T06:04:57.196Z,100241.91
2022-08-11T06:07:49.207Z,100245.16
2022-08-11T06:10:38.836Z,100245.09
2022-08-11T06:13:25.544Z,100243.72
2022-08-11T06:16:15.310Z,100246.84
2022-08-11T06:19:01.486Z,100245.38
2022-08-11T06:21:48.177Z,100249.78
2022-08-11T06:24:35.381Z,100254.47
2022-08-11T06:27:22.616Z,100240.50
2022-08-11T06:30:14.758Z,100238.38
2022-08-11T06:33:02.170Z,100244.81
2022-08-11T06:36:00.495Z,100242.69
2022-08-11T06:39:25.411Z,100229.22
2022-08-11T06:42:15.858Z,100235.59
2022-08-11T06:45:26.937Z,100236.03
2022-08-11T06:48:18.131Z,100234.88
2022-08-11T06:51:15.094Z,100235.78
2022-08-11T06:54:04.711Z,100229.34
2022-08-11T06:57:29.971Z,100231.22
2022-08-11T07:00:30.606Z,100229.81
2022-08-11T07:03:20.501Z,100235.88
2022-08-11T07:06:51.252Z,100225.41
2022-08-11T07:10:21.219Z,100225.00
2022-08-11T07:13:44.654Z,100222.66
2022-08-11T07:16:34.868Z,100225.41
2022-08-11T07:19:43.599Z,100225.47
2022-08-11T07:23:09.854Z,100227.88
2022-08-11T07:26:15.372Z,100217.41
2022-08-11T07:29:03.046Z,100208.94
2022-08-11T07:31:51.396Z,100204.97
2022-08-11T07:34:41.045Z,100203.78
2022-08-11T07:37:33.291Z,100211.34
2022-08-11T07:40:24.232Z,100217.44
2022-08-11T07:43:12.775Z,100217.69
2022-08-11T07:46:18.075Z,100209.38
2022-08-11T07:49:25.827Z,100203.75
2022-08-11T07:52:30.674Z,100202.94
2022-08-11T07:55:17.903Z,100204.41
2022-08-11T07:58:25.377Z,100209.34
2022-08-11T08:01:41.580Z,100204.47
2022-08-11T08:04:47.550Z,100202.91
2022-08-11T08:07:52.366Z,100196.56
2022-08-11T08:11:00.170Z,100194.16
2022-08-11T08:14:05.666Z,100200.97
2022-08-11T08:17:10.740Z,100205.34
2022-08-11T08:19:57.132Z,100192.44
2022-08-11T08:22:47.906Z,100194.81
2022-08-11T08:25:37.032Z,100204.97
2022-08-11T08:28:23.793Z,100202.53
2022-08-11T08:31:09.920Z,100196.47
2022-08-11T08:33:57.149Z,100202.75
2022-08-11T08:36:45.066Z,100193.91
2022-08-11T08:39:34.518Z,100188.91
2022-08-11T08:42:24.906Z,100193.09
2022-08-11T08:45:16.371Z,100184.97
2022-08-11T08:48:05.066Z,100181.56
2022-08-11T08:51:16.283Z,100176.97
2022-08-11T08:54:11.761Z,100177.09
2022-08-11T08:56:58.642Z,100176.50
2022-08-11T08:59:49.781Z,100177.91
2022-08-11T09:02:38.208Z,100181.31
2022-08-11T09:05:26.470Z,100184.50
2022-08-11T09:08:13.445Z,100182.59
2022-08-11T09:11:19.797Z,100166.78
2022-08-11T09:14:10.359Z,100168.72
2022-08-11T09:16:58.845Z,100177.44
2022-08-11T09:19:49.515Z,100165.78
2022-08-11T09:26:30.897Z,100170.38
2022-08-11T09:29:17.575Z,100167.06
2022-08-11T09:32:07.150Z,100154.41
2022-08-11T09:34:54.272Z,100148.97
2022-08-11T09:38:00.331Z,100144.25
2022-08-11T09:40:56.125Z,100145.91
2022-08-11T09:44:04.273Z,100144.22
2022-08-11T09:46:51.708Z,100133.19
2022-08-11T09:49:40.201Z,100140.50
2022-08-11T09:52:26.632Z,100137.84
2022-08-11T09:55:15.028Z,100136.59
2022-08-11T09:58:42.741Z,100128.72
2022-08-11T10:01:27.623Z,100138.03
2022-08-11T10:04:17.300Z,100120.84
2022-08-11T10:07:10.655Z,100117.84
2022-08-11T10:09:59.622Z,100125.09
2022-08-11T10:12:49.719Z,100121.03
2022-08-11T10:15:39.696Z,100126.75
2022-08-11T10:18:52.785Z,100121.50
2022-08-11T10:22:06.538Z,100115.50
2022-08-11T10:25:11.552Z,100115.63
2022-08-11T10:28:30.371Z,100114.03
2022-08-11T10:31:26.017Z,100106.16
2022-08-11T10:34:16.598Z,100094.06
2022-08-11T10:37:06.872Z,100095.09
2022-08-11T10:40:01.816Z,100082.97
2022-08-11T10:43:03.220Z,100086.81
2022-08-11T10:46:08.498Z,100088.59
2022-08-11T10:48:56.733Z,100088.19
2022-08-11T10:52:02.254Z,100087.94
2022-08-11T10:55:07.608Z,100085.34
2022-08-11T10:58:12.510Z,100089.25
2022-08-11T11:01:00.650Z,100089.56
2022-08-11T11:03:47.621Z,100079.09
2022-08-11T11:06:44.755Z,100074.66
2022-08-11T11:09:33.952Z,100071.94
2022-08-11T11:13:03.734Z,100067.19
2022-08-11T11:16:08.801Z,100067.44
2022-08-11T11:19:00.708Z,100066.41
2022-08-11T11:21:51.333Z,100054.09
2022-08-11T11:25:11.166Z,100048.03
2022-08-11T11:28:09.877Z,100034.94
2022-08-11T11:31:22.450Z,100032.50
2022-08-11T11:34:52.850Z,100031.22
2022-08-11T11:37:56.084Z,100027.72
2022-08-11T11:41:10.464Z,100033.37
2022-08-11T11:43:57.422Z,100031.53
2022-08-11T11:46:48.516Z,100028.53
2022-08-11T11:49:39.483Z,99997.00
2022-08-11T11:52:26.210Z,100017.16
2022-08-11T11:55:12.848Z,100019.16
2022-08-11T11:58:19.833Z,100015.78
2022-08-11T12:01:17.062Z,100003.25
2022-08-11T12:04:06.725Z,100005.41
2022-08-11T12:07:13.431Z,100000.81
2022-08-11T12:10:00.796Z,100002.22
2022-08-11T12:13:05.726Z,99995.22
2022-08-11T12:16:32.360Z,99993.91
2022-08-11T12:19:00.159Z,99987.25
2022-08-11T12:22:05.455Z,99990.94
2022-08-11T12:25:10.184Z,99989.47
2022-08-11T12:27:56.888Z,99988.56
2022-08-11T12:33:38.792Z,99993.72
2022-08-11T12:36:25.476Z,99989.34
2022-08-11T12:39:23.091Z,99984.50
2022-08-11T12:42:32.989Z,99985.09
2022-08-11T12:45:29.716Z,99971.59
2022-08-11T12:49:00.047Z,99973.22
2022-08-11T12:52:13.965Z,99980.44
2022-08-11T12:55:35.247Z,99971.97
2022-08-11T12:58:21.598Z,99977.19
2022-08-11T13:01:26.617Z,99968.38
2022-08-11T13:04:31.422Z,99960.75
2022-08-11T13:07:17.756Z,99956.25
2022-08-11T13:10:06.312Z,99945.41
2022-08-11T13:12:56.944Z,99946.19
2022-08-11T13:15:43.894Z,99955.00
2022-08-11T13:18:30.503Z,99941.41
2022-08-11T13:21:20.426Z,99943.50
2022-08-11T13:24:07.180Z,99936.91
2022-08-11T13:26:53.618Z,99930.91
2022-08-11T13:29:41.991Z,99933.47
2022-08-11T13:32:29.765Z,99932.37
2022-08-11T13:35:16.262Z,99936.78
2022-08-11T13:38:27.110Z,99926.97
2022-08-11T13:41:29.151Z,99927.63
2022-08-11T13:44:21.603Z,99926.81
2022-08-11T13:47:12.846Z,99917.94
2022-08-11T13:49:59.211Z,99924.78
2022-08-11T13:52:48.994Z,99927.22
2022-08-11T13:55:51.629Z,99915.59
2022-08-11T13:58:40.026Z,99914.59
2022-08-11T14:02:19.483Z,99920.34
2022-08-11T14:05:29.756Z,99922.69
2022-08-11T14:08:37.072Z,99919.69
2022-08-11T14:12:21.053Z,99921.09
2022-08-11T14:15:08.220Z,99924.75
2022-08-11T14:18:01.708Z,99923.94
2022-08-11T14:21:10.864Z,99917.78
2022-08-11T14:24:01.457Z,99902.47
2022-08-11T14:26:49.213Z,99909.37
2022-08-11T14:29:48.558Z,99911.19
2022-08-11T14:32:35.065Z,99910.78
2022-08-11T14:35:39.454Z,99906.72
2022-08-11T14:38:31.045Z,99913.06
2022-08-11T14:41:36.729Z,99906.69
2022-08-11T14:44:41.502Z,99910.03
2022-08-11T14:47:30.907Z,99902.84
2022-08-11T14:50:24.386Z,99905.59
2022-08-11T14:53:11.462Z,99909.13
2022-08-11T14:56:22.331Z,99900.78
2022-08-11T14:59:08.978Z,99906.16
2022-08-11T15:02:14.161Z,99905.72
2022-08-11T15:05:02.221Z,99898.38
2022-08-11T15:07:48.572Z,99904.63
2022-08-11T15:10:35.598Z,99900.72
2022-08-11T15:13:22.191Z,99898.28
2022-08-11T15:16:40.829Z,99904.19
2022-08-11T15:19:29.303Z,99900.84
2022-08-11T15:22:42.031Z,99894.97
2022-08-11T15:25:29.464Z,99902.03
2022-08-11T15:28:35.475Z,99896.50
2022-08-11T15:31:35.764Z,99902.44
2022-08-11T15:34:44.829Z,99899.88
2022-08-11T15:37:32.122Z,99892.00
2022-08-11T15:40:49.057Z,99901.28
2022-08-11T15:44:02.213Z,99895.78
2022-08-11T15:46:52.407Z,99886.25
2022-08-11T15:50:11.128Z,99884.97
2022-08-11T15:53:14.275Z,99884.09
2022-08-11T15:56:01.203Z,99874.31
2022-08-11T15:59:35.082Z,99885.06
2022-08-11T16:02:34.257Z,99884.84
2022-08-11T16:05:45.370Z,99887.88
2022-08-11T16:08:33.232Z,99884.09
2022-08-11T16:11:21.611Z,99883.19
2022-08-11T16:14:28.285Z,99881.16
2022-08-11T16:17:17.455Z,99879.91
2022-08-11T16:20:04.354Z,99877.94
2022-08-11T16:23:01.342Z,99874.56
2022-08-11T16:27:03.085Z,99879.34
2022-08-11T16:28:58.106Z,99878.75
2022-08-11T16:32:05.139Z,99883.72
2022-08-11T16:35:20.236Z,99875.91
2022-08-11T16:38:26.239Z,99871.13
2022-08-11T16:41:14.820Z,99876.66
2022-08-11T16:44:19.844Z,99870.66
2022-08-11T16:48:02.865Z,99879.03
2022-08-11T16:50:32.426Z,99877.00
2022-08-11T16:53:19.126Z,99877.84
2022-08-11T16:56:07.991Z,99871.59
2022-08-11T16:59:15.190Z,99881.13
2022-08-11T17:02:10.350Z,99879.19
2022-08-11T17:05:17.478Z,99876.38
2022-08-11T17:08:24.440Z,99884.28
2022-08-11T17:11:31.093Z,99885.94
2022-08-11T17:14:35.646Z,99874.38
2022-08-11T17:17:33.217Z,99878.31
2022-08-11T17:20:42.470Z,99882.38
2022-08-11T17:23:44.776Z,99883.84
2022-08-11T17:26:58.380Z,99875.22
2022-08-11T17:29:56.880Z,99887.06
2022-08-11T17:33:07.854Z,99885.63
2022-08-11T17:35:54.417Z,99894.03
2022-08-11T17:38:41.270Z,99902.34
2022-08-11T17:41:59.930Z,99910.41
2022-08-11T17:45:04.671Z,99912.84
2022-08-11T17:48:10.025Z,99914.06
2022-08-11T17:51:00.349Z,99917.63
2022-08-11T17:54:24.779Z,99922.63
2022-08-11T17:57:52.253Z,99919.34
2022-08-11T18:00:38.897Z,99928.81
2022-08-11T18:03:39.341Z,99930.59
2022-08-11T18:06:33.750Z,99930.47
2022-08-11T18:09:41.164Z,99937.81
2022-08-11T18:12:45.829Z,99947.69
2022-08-11T18:15:55.925Z,99948.59
2022-08-11T18:19:00.949Z,99953.50
2022-08-11T18:22:15.500Z,99958.62
2022-08-11T18:25:29.878Z,99957.06
2022-08-11T18:28:42.942Z,99957.06
2022-08-11T18:31:50.128Z,99956.50
2022-08-11T18:34:59.907Z,99959.19
2022-08-11T18:38:06.094Z,99962.34
2022-08-11T18:41:11.312Z,99963.72
2022-08-11T18:44:18.867Z,99968.25
2022-08-11T18:47:29.477Z,99966.41
2022-08-11T18:50:39.501Z,99958.00
2022-08-11T18:53:46.487Z,99965.03
2022-08-11T18:56:52.647Z,99966.50
2022-08-11T18:59:59.277Z,99969.84
2022-08-11T19:03:04.970Z,99970.19
2022-08-11T19:06:38.529Z,99977.69
2022-08-11T19:09:37.272Z,99972.63
2022-08-11T19:12:42.905Z,99971.69
2022-08-11T19:15:50.036Z,99975.12
2022-08-11T19:18:55.584Z,99976.91
2022-08-11T19:22:00.667Z,99976.66
2022-08-11T19:25:08.114Z,99972.75
2022-08-11T19:28:12.914Z,99967.69
2022-08-11T19:31:18.367Z,99962.34
2022-08-11T19:34:25.255Z,99955.31
2022-08-11T19:37:30.427Z,99962.25
2022-08-11T19:40:35.180Z,99957.03
2022-08-11T19:43:42.697Z,99957.13
2022-08-11T19:46:48.685Z,99955.91
2022-08-11T19:49:54.122Z,99952.38
2022-08-11T19:52:59.138Z,99959.22
2022-08-11T19:56:06.136Z,99967.75
2022-08-11T19:59:11.902Z,99967.34
2022-08-11T20:02:17.163Z,99961.44
2022-08-11T20:05:23.363Z,99958.00
2022-08-11T20:08:28.402Z,99958.41
2022-08-11T20:11:34.107Z,99949.44
2022-08-11T20:14:40.050Z,99958.78
2022-08-11T20:17:48.184Z,99955.97
2022-08-11T20:20:53.586Z,99962.28
2022-08-11T20:24:00.855Z,99961.75
2022-08-11T20:27:18.758Z,99953.78
2022-08-11T20:30:30.081Z,99965.13
2022-08-11T20:33:35.626Z,99958.44
2022-08-11T20:36:41.139Z,99962.50
2022-08-11T20:39:47.429Z,99964.38
2022-08-11T20:42:53.877Z,99957.44
2022-08-11T20:45:58.873Z,99965.66
2022-08-11T20:49:04.941Z,99971.16
2022-08-11T20:52:09.944Z,99979.53
2022-08-11T20:55:19.099Z,99980.34
2022-08-11T20:58:48.042Z,99984.34
2022-08-11T21:01:57.950Z,99984.94
2022-08-11T21:05:03.048Z,99982.28
2022-08-11T21:08:13.149Z,99976.38
2022-08-11T21:11:27.718Z,99977.94
2022-08-11T21:14:33.012Z,99977.69
2022-08-11T21:18:00.094Z,99982.22
2022-08-11T21:21:06.897Z,99991.03
2022-08-11T21:24:12.553Z,99994.03
2022-08-11T21:27:24.981Z,99990.44
2022-08-11T21:30:29.956Z,99988.72
2022-08-11T21:33:35.578Z,99994.97
2022-08-11T21:36:40.986Z,99992.63
2022-08-11T21:39:47.239Z,99994.53
2022-08-11T21:42:55.572Z,99989.47
2022-08-11T21:46:02.181Z,99995.59
2022-08-11T21:49:08.200Z,99999.09
2022-08-11T21:52:13.439Z,99999.91
2022-08-11T21:55:18.390Z,100005.91
2022-08-11T21:58:24.383Z,100003.31
2022-08-11T22:01:31.065Z,100003.63
2022-08-11T22:04:40.330Z,100004.56
2022-08-11T22:07:45.837Z,99999.53
2022-08-11T22:10:50.775Z,100002.41
2022-08-11T22:14:01.283Z,99998.59
2022-08-11T22:17:13.200Z,100004.06
2022-08-11T22:20:18.667Z,100000.16
2022-08-11T22:23:23.764Z,99999.69
2022-08-11T22:26:35.157Z,100002.16
2022-08-11T22:29:50.450Z,99999.31
2022-08-11T22:32:57.761Z,100000.84
2022-08-11T22:36:04.521Z,99993.25
2022-08-11T22:39:09.550Z,99992.28
2022-08-11T22:42:14.498Z,99992.44
2022-08-11T22:45:19.707Z,99990.66
2022-08-11T22:48:26.501Z,99990.12
2022-08-11T22:51:32.947Z,99983.97
2022-08-11T22:54:39.536Z,99975.75
2022-08-11T22:57:46.585Z,99980.88
2022-08-11T23:01:07.246Z,99973.78
2022-08-11T23:04:12.552Z,99969.66
2022-08-11T23:07:49.342Z,99967.25
2022-08-11T23:10:45.527Z,99968.50
2022-08-11T23:13:51.482Z,99966.06
2022-08-11T23:16:56.088Z,99968.56
2022-08-11T23:20:17.538Z,99967.97
2022-08-11T23:23:28.528Z,99966.72
2022-08-11T23:26:36.663Z,99964.81
2022-08-11T23:29:41.634Z,99959.91
2022-08-11T23:32:47.925Z,99962.94
2022-08-11T23:35:55.510Z,99960.88
2022-08-11T23:39:02.911Z,99949.25
2022-08-11T23:42:07.775Z,99950.84
2022-08-11T23:45:12.613Z,99947.56
2022-08-11T23:48:18.087Z,99943.09
2022-08-11T23:51:24.562Z,99942.16
2022-08-11T23:54:45.688Z,99941.94
2022-08-11T23:57:51.775Z,99945.97
